KGRF/GRF METAR and TAF weather

Enter ICAO airport designator
Station Type Date Time Source
KGRF METAR 2018/12/12 06:58 UTC NOAA

KGRF 120658Z 18010KT 10SM CLR 06/06 A2987 RMK AO2A SLP120 T00620062 $


Station Type Date Time Source
KGRF Decoded METAR 2018/12/12 06:58 UTC NOAA

Fort Lewis / Gray U. S. Army Airfield, WA, United States (KGRF) 47-07N 122-33W 87M
Dec 12, 2018 - 01:58 AM EST / 2018.12.12 0658 UTC
Wind: from the S (180 degrees) at 12 MPH (10 KT):0
Visibility: 10 mile(s):0
Sky conditions: clear
Temperature: 43.2 F (6.2 C)
Dew Point: 43.2 F (6.2 C)
Relative Humidity: 100%
Pressure (altimeter): 29.87 in. Hg (1011 hPa)
ob: KGRF 120658Z 18010KT 10SM CLR 06/06 A2987 RMK AO2A SLP120 T00620062
cycle: 7

Station Type Date Time Source
KGRF TAF 2018/12/12 05:09 UTC NOAA

TAF TAF KGRF 120503Z 1205/1311 19012KT 9999 SCT050 BKN100 QNH2976INS
BECMG 1217/1218 20012KT 9999 BKN050 610504 QNH3022INS
BECMG 1220/1221 20012G18KT 9000 -RA FEW020 OVC050 620504 QNH3023INS
BECMG 1302/1303 19015G25KT 9000 -RA SCT020 OVC050 620503 510009 QNH3012INS TX09/1223Z TN02/1213Z


Example: see airport list